Terminal Aerodrome Forecast
Issued by NWS

Home | Current Version | Previous Version | Text Only | Print | Product List | Glossary On
Versions: 1 2 3 4 5 6 7 8 9 10 11 12 13 14 15 16 17 18 19 20 21 22 23 24 25 26
698
FTUS41 KILN 202339
TAFLUK
TAF
KLUK 202339Z 2100/2124 VRB03KT P6SM SCT250
     FM210500 00000KT 4SM BR SKC
     FM210700 00000KT 1SM BR FEW002
     FM210900 00000KT 1/4SM FG VV002
     FM211300 VRB03KT 2SM BR FEW003
     FM211400 VRB03KT P6SM FEW030
     FM211600 VRB03KT P6SM SCT050=

USA.gov is the U.S. government's official web portal to all federal, state and local government web resources and services.